Nelsonville, WI (54458)

8:50 PM CST on December 21, 2014 (GMT -0600)
Corks Repair | Change Station
CLOSE
Current Station
Personal Weather Station
Location: Iola, WI
Elevation: 1050 ft
Nearby Weather Stations
Active Advisory: Special Statement

Elev 1050 ft 44.55 °N, 89.19 °W | Updated 7 seconds ago

Overcast
Overcast
34.0 °F
Feels Like 34 °F
N
0.0
Wind Variable Wind from North
Gusts 3.6 mph

Today
High -- | Low -- °F
--% Chance of Precip.
Yesterday
High -- | Low -- °F
Precip. -- in
7:30 AM 4:20 PM
New Moon, 0% visible
Pressure 29.90 in
Visibility 3.0 miles
Clouds Overcast 500 ft
Windchill 34 °F
Dew Point 34 °F
Humidity 100%
Rainfall 0.00 in
Snow Depth Not available.
UV 0 out of 12
Pollen .10 out of 12
Air Quality Not available.
Flu Activity Not available.
METAR KSTE 220235Z AUTO 16009G15KT 3SM -RA OVC005 00/00 A2990 RMK AO2 T00001002

More Conditions Fewer Conditions

Pressure 29.90 in
Visibility 3.0 miles
Clouds Overcast 500 ft
Windchill 34 °F
Dew Point 34 °F
Humidity 100%
Rainfall 0.00 in
Snow Depth Not available.
UV 0 out of 12
Pollen .10 out of 12
Air Quality Not available.
Flu Activity Not available.
METAR KSTE 220235Z AUTO 16009G15KT 3SM -RA OVC005 00/00 A2990 RMK AO2 T00001002

More Conditions Fewer Conditions

10-Day Weather Forecast

Almanac

Astronomy

Dec. 21, 2014 Rise Set
Actual Time
Civil Twilight
Nautical Twilight
Astronomical Twilight
Moon
Length of Visible Light
Length of Day
Tomorrow will be .
, % of the Moon is Illuminated

Today's Extremes

State Highs State Lows

Community

WunderPhotos

Upload Photos

1,779,528 photos uploaded!

WunderBlogs® & News

Nearby

Air Quality

  Air Quality AQ Index Pollutant
Not available.

Snow Depth

Station Depth Elevation

Earthquake Activity

City Distance Mag. Time & Date
Minimum magnitude displayed is 2.5.

Coastal Water Temperatures

Place Temperature

Nearby Weather Stations